createdAt,value
2022-11-09T00:01:05.109Z,100382.80
2022-11-09T00:03:31.645Z,100378.40
2022-11-09T00:06:00.150Z,100377.80
2022-11-09T00:08:27.701Z,100374.80
2022-11-09T00:10:54.210Z,100373.80
2022-11-09T00:13:21.450Z,100375.60
2022-11-09T00:15:48.413Z,100378.80
2022-11-09T00:18:14.940Z,100378.60
2022-11-09T00:20:47.209Z,100372.40
2022-11-09T00:23:18.186Z,100377.40
2022-11-09T00:25:45.762Z,100376.40
2022-11-09T00:28:12.855Z,100379.00
2022-11-09T00:30:41.029Z,100369.80
2022-11-09T00:33:08.305Z,100370.60
2022-11-09T00:35:38.181Z,100370.20
2022-11-09T00:38:04.804Z,100374.60
2022-11-09T00:40:31.262Z,100377.00
2022-11-09T00:42:57.737Z,100376.60
2022-11-09T00:45:24.208Z,100377.40
2022-11-09T00:47:50.675Z,100376.00
2022-11-09T00:50:17.245Z,100375.20
2022-11-09T00:52:44.296Z,100368.00
2022-11-09T00:55:10.796Z,100370.60
2022-11-09T00:57:37.267Z,100366.80
2022-11-09T01:00:04.553Z,100364.00
2022-11-09T01:02:31.076Z,100364.00
2022-11-09T01:04:59.527Z,100366.00
2022-11-09T01:07:26.166Z,100363.80
2022-11-09T01:09:52.638Z,100359.80
2022-11-09T01:12:19.170Z,100363.60
2022-11-09T01:14:45.776Z,100359.80
2022-11-09T01:17:12.267Z,100356.00
2022-11-09T01:19:38.745Z,100350.40
2022-11-09T01:22:05.215Z,100347.00
2022-11-09T01:24:31.715Z,100355.00
2022-11-09T01:26:58.184Z,100352.60
2022-11-09T01:29:24.731Z,100355.40
2022-11-09T01:31:55.180Z,100355.20
2022-11-09T01:34:22.035Z,100356.40
2022-11-09T01:36:52.025Z,100354.00
2022-11-09T01:39:19.558Z,100353.40
2022-11-09T01:41:47.217Z,100359.80
2022-11-09T01:44:18.693Z,100351.80
2022-11-09T01:47:07.281Z,100353.80
2022-11-09T01:49:46.405Z,100354.00
2022-11-09T01:52:25.485Z,100359.20
2022-11-09T01:54:59.809Z,100357.40
2022-11-09T01:57:36.232Z,100356.40
2022-11-09T02:00:08.306Z,100358.60
2022-11-09T02:02:39.332Z,100360.80
2022-11-09T02:05:14.255Z,100371.00
2022-11-09T02:07:42.788Z,100365.60
2022-11-09T02:10:33.287Z,100365.00
2022-11-09T02:13:02.251Z,100358.80
2022-11-09T02:15:29.423Z,100354.60
2022-11-09T02:17:57.209Z,100342.80
2022-11-09T02:20:25.267Z,100337.20
2022-11-09T02:22:51.863Z,100339.40
2022-11-09T02:25:18.795Z,100342.40
2022-11-09T02:27:46.229Z,100346.00
2022-11-09T02:30:15.321Z,100348.60
2022-11-09T02:32:41.974Z,100350.80
2022-11-09T02:35:10.288Z,100359.60
2022-11-09T02:37:48.190Z,100364.40
2022-11-09T02:40:31.436Z,100354.80
2022-11-09T02:43:01.334Z,100351.20
2022-11-09T02:45:28.210Z,100355.80
2022-11-09T02:47:54.872Z,100352.60
2022-11-09T02:50:22.110Z,100350.80
2022-11-09T02:52:48.804Z,100344.00
2022-11-09T02:55:15.534Z,100337.80
2022-11-09T02:57:42.203Z,100337.40
2022-11-09T03:00:09.602Z,100335.40
2022-11-09T03:02:36.898Z,100341.00
2022-11-09T03:05:04.674Z,100338.40
2022-11-09T03:07:32.029Z,100332.00
2022-11-09T03:09:58.673Z,100327.80
2022-11-09T03:12:30.820Z,100336.20
2022-11-09T03:15:06.106Z,100339.60
2022-11-09T03:17:33.690Z,100342.00
2022-11-09T03:20:00.680Z,100342.40
2022-11-09T03:22:28.529Z,100347.80
2022-11-09T03:24:55.284Z,100338.20
2022-11-09T03:27:21.857Z,100339.20
2022-11-09T03:29:48.609Z,100336.00
2022-11-09T03:32:15.167Z,100330.80
2022-11-09T03:34:41.711Z,100319.80
2022-11-09T03:37:08.233Z,100316.00
2022-11-09T03:39:34.787Z,100320.80
2022-11-09T03:42:01.393Z,100321.80
2022-11-09T03:44:27.886Z,100321.20
2022-11-09T03:46:54.459Z,100311.60
2022-11-09T03:49:23.332Z,100312.20
2022-11-09T03:51:50.978Z,100306.00
2022-11-09T03:54:17.588Z,100307.00
2022-11-09T03:56:44.174Z,100301.60
2022-11-09T03:59:10.788Z,100306.60
2022-11-09T04:01:37.450Z,100305.40
2022-11-09T04:04:04.425Z,100310.20
2022-11-09T04:06:30.952Z,100303.80
2022-11-09T04:08:57.543Z,100310.20
2022-11-09T04:11:24.134Z,100305.00
2022-11-09T04:13:50.669Z,100302.20
2022-11-09T04:16:17.263Z,100302.40
2022-11-09T04:18:43.777Z,100306.80
2022-11-09T04:21:10.462Z,100302.20
2022-11-09T04:23:37.016Z,100300.00
2022-11-09T04:26:03.542Z,100293.60
2022-11-09T04:28:30.129Z,100293.20
2022-11-09T04:31:01.507Z,100288.40
2022-11-09T04:33:29.147Z,100296.80
2022-11-09T04:36:02.971Z,100292.40
2022-11-09T04:38:29.479Z,100290.80
2022-11-09T04:41:01.257Z,100300.20
2022-11-09T04:43:28.139Z,100296.00
2022-11-09T04:45:55.359Z,100294.00
2022-11-09T04:48:21.976Z,100299.20
2022-11-09T04:50:48.633Z,100301.80
2022-11-09T04:53:15.530Z,100301.40
2022-11-09T04:55:42.714Z,100296.60
2022-11-09T04:58:10.125Z,100292.40
2022-11-09T05:00:37.212Z,100293.60
2022-11-09T05:03:06.390Z,100292.00
2022-11-09T05:05:35.531Z,100295.20
2022-11-09T05:08:03.597Z,100293.60
2022-11-09T05:10:31.056Z,100298.40
2022-11-09T05:13:00.845Z,100298.40
2022-11-09T05:15:28.122Z,100296.80
2022-11-09T05:17:55.188Z,100296.60
2022-11-09T05:20:21.883Z,100305.40
2022-11-09T05:23:07.394Z,100312.20
2022-11-09T05:25:34.329Z,100311.00
2022-11-09T05:28:00.955Z,100310.60
2022-11-09T05:30:27.552Z,100312.00
2022-11-09T05:32:54.159Z,100306.80
2022-11-09T05:35:20.676Z,100307.40
2022-11-09T05:37:48.921Z,100310.60
2022-11-09T05:40:18.410Z,100314.20
2022-11-09T05:42:45.471Z,100315.80
2022-11-09T05:45:44.664Z,100311.20
2022-11-09T05:48:04.236Z,100312.00
2022-11-09T05:50:31.053Z,100311.40
2022-11-09T05:53:01.785Z,100307.00
2022-11-09T05:55:28.315Z,100304.00
2022-11-09T05:57:55.532Z,100301.60
2022-11-09T06:00:22.758Z,100288.80
2022-11-09T06:02:50.151Z,100293.20
2022-11-09T06:05:17.098Z,100295.00
2022-11-09T06:07:43.801Z,100304.20
2022-11-09T06:10:10.677Z,100302.80
2022-11-09T06:12:37.707Z,100300.80
2022-11-09T06:15:05.961Z,100303.80
2022-11-09T06:17:32.498Z,100304.60
2022-11-09T06:19:58.997Z,100317.40
2022-11-09T06:22:25.566Z,100307.00
2022-11-09T06:24:52.026Z,100305.80
2022-11-09T06:27:18.581Z,100317.00
2022-11-09T06:29:45.080Z,100320.20
2022-11-09T06:32:11.590Z,100316.20
2022-11-09T06:34:38.141Z,100309.00
2022-11-09T06:37:04.808Z,100301.40
2022-11-09T06:39:31.325Z,100321.20
2022-11-09T06:41:57.903Z,100329.20
2022-11-09T06:44:24.461Z,100320.60
2022-11-09T06:46:51.155Z,100318.40
2022-11-09T06:49:17.713Z,100319.60
2022-11-09T06:51:53.159Z,100316.60
2022-11-09T06:54:23.822Z,100317.40
2022-11-09T06:56:50.329Z,100312.20
2022-11-09T06:59:16.814Z,100325.00
2022-11-09T07:01:43.386Z,100333.00
2022-11-09T07:04:13.634Z,100329.40
2022-11-09T07:06:41.551Z,100332.00
2022-11-09T07:09:12.701Z,100331.40
2022-11-09T07:11:39.478Z,100321.40
2022-11-09T07:14:06.367Z,100319.20
2022-11-09T07:16:33.274Z,100313.60
2022-11-09T07:19:00.154Z,100317.00
2022-11-09T07:21:26.735Z,100325.40
2022-11-09T07:23:53.239Z,100323.60
2022-11-09T07:26:19.817Z,100329.20
2022-11-09T07:28:46.383Z,100323.60
2022-11-09T07:31:12.897Z,100323.20
2022-11-09T07:33:39.423Z,100335.00
2022-11-09T07:36:06.535Z,100334.00
2022-11-09T07:38:33.128Z,100326.60
2022-11-09T07:41:01.508Z,100325.40
2022-11-09T07:43:29.338Z,100323.80
2022-11-09T07:45:56.322Z,100315.80
2022-11-09T07:48:23.062Z,100313.80
2022-11-09T07:50:49.812Z,100312.40
2022-11-09T07:53:17.088Z,100312.40
2022-11-09T07:55:44.001Z,100314.00
2022-11-09T07:58:16.196Z,100310.00
2022-11-09T08:00:43.692Z,100308.20
2022-11-09T08:03:10.832Z,100314.20
2022-11-09T08:05:38.363Z,100311.60
2022-11-09T08:08:09.807Z,100312.00
2022-11-09T08:10:37.870Z,100303.60
2022-11-09T08:13:10.315Z,100311.40
2022-11-09T08:15:37.844Z,100303.80
2022-11-09T08:18:18.494Z,100307.00
2022-11-09T08:20:45.839Z,100301.00
2022-11-09T08:23:14.804Z,100296.40
2022-11-09T08:25:42.116Z,100288.60
2022-11-09T08:28:15.840Z,100288.20
2022-11-09T08:30:44.436Z,100298.40
2022-11-09T08:33:12.537Z,100299.40
2022-11-09T08:35:39.144Z,100300.60
2022-11-09T08:38:05.990Z,100301.60
2022-11-09T08:40:33.442Z,100303.00
2022-11-09T08:43:04.279Z,100297.80
2022-11-09T08:45:37.627Z,100296.00
2022-11-09T08:48:06.561Z,100306.80
2022-11-09T08:50:36.068Z,100305.20
2022-11-09T08:53:06.192Z,100296.00
2022-11-09T08:55:35.338Z,100295.80
2022-11-09T08:58:03.918Z,100297.60
2022-11-09T09:00:33.450Z,100306.20
2022-11-09T09:03:06.261Z,100311.60
2022-11-09T09:05:34.838Z,100309.20
2022-11-09T09:08:04.131Z,100308.60
2022-11-09T09:10:31.943Z,100312.60
2022-11-09T09:12:59.518Z,100302.20
2022-11-09T09:15:26.034Z,100301.20
2022-11-09T09:17:52.562Z,100296.80
2022-11-09T09:20:19.189Z,100295.60
2022-11-09T09:22:46.376Z,100293.60
2022-11-09T09:25:13.087Z,100289.20
2022-11-09T09:27:39.667Z,100298.20
2022-11-09T09:30:07.292Z,100299.20
2022-11-09T09:32:33.820Z,100294.60
2022-11-09T09:35:00.409Z,100293.40
2022-11-09T09:37:26.963Z,100293.40
2022-11-09T09:39:53.539Z,100292.20
2022-11-09T09:42:31.144Z,100292.40
2022-11-09T09:45:08.202Z,100298.00
2022-11-09T09:47:49.958Z,100306.00
2022-11-09T09:50:29.799Z,100312.60
2022-11-09T09:53:25.315Z,100314.00
2022-11-09T09:56:04.291Z,100313.20
2022-11-09T09:58:34.497Z,100312.20
2022-11-09T10:01:23.490Z,100315.60
2022-11-09T10:03:50.855Z,100315.80
2022-11-09T10:06:48.526Z,100321.20
2022-11-09T10:09:34.858Z,100323.20
2022-11-09T10:12:45.997Z,100328.80
2022-11-09T10:15:22.040Z,100331.60
2022-11-09T10:18:22.298Z,100313.60
2022-11-09T10:21:10.478Z,100306.40
2022-11-09T10:23:57.049Z,100293.60
2022-11-09T10:26:43.839Z,100298.20
2022-11-09T10:29:27.428Z,100287.40
2022-11-09T10:32:07.743Z,100286.80
2022-11-09T10:34:55.684Z,100286.60
2022-11-09T10:37:32.592Z,100288.60
2022-11-09T10:40:08.823Z,100283.20
2022-11-09T10:42:35.499Z,100288.00
2022-11-09T10:45:39.333Z,100285.60
2022-11-09T10:48:08.238Z,100294.20
2022-11-09T10:50:52.112Z,100293.20
2022-11-09T10:53:21.144Z,100298.40
2022-11-09T10:56:06.747Z,100308.00
2022-11-09T10:58:48.380Z,100301.20
2022-11-09T11:01:19.026Z,100302.60
2022-11-09T11:03:51.443Z,100303.60
2022-11-09T11:06:21.024Z,100286.20
2022-11-09T11:08:51.946Z,100288.00
2022-11-09T11:11:35.959Z,100288.60
2022-11-09T11:14:34.890Z,100296.20
2022-11-09T11:17:01.843Z,100294.60
2022-11-09T11:19:44.752Z,100295.60
2022-11-09T11:22:11.162Z,100307.00
2022-11-09T11:25:02.594Z,100314.80
2022-11-09T11:28:04.402Z,100310.80
2022-11-09T11:30:37.051Z,100295.40
2022-11-09T11:33:18.431Z,100299.40
2022-11-09T11:35:58.469Z,100289.60
2022-11-09T11:38:35.422Z,100290.40
2022-11-09T11:41:46.777Z,100284.40
2022-11-09T11:44:41.409Z,100288.60
2022-11-09T11:47:33.314Z,100299.40
2022-11-09T11:50:28.485Z,100301.20
2022-11-09T11:53:28.490Z,100305.20
2022-11-09T11:56:32.118Z,100309.60
2022-11-09T11:59:23.349Z,100304.40
2022-11-09T12:02:27.921Z,100310.00
2022-11-09T12:05:19.936Z,100319.40
2022-11-09T12:08:03.589Z,100319.00
2022-11-09T12:10:49.632Z,100330.80
2022-11-09T12:13:50.615Z,100318.00
2022-11-09T12:16:45.518Z,100319.60
2022-11-09T12:19:34.321Z,100319.80
2022-11-09T12:22:27.868Z,100333.60
2022-11-09T12:25:15.050Z,100331.80
2022-11-09T12:27:54.484Z,100344.60
2022-11-09T12:30:27.584Z,100343.40
2022-11-09T12:33:33.248Z,100346.80
2022-11-09T12:36:16.124Z,100341.00
2022-11-09T12:39:06.042Z,100341.40
2022-11-09T12:41:37.683Z,100341.80
2022-11-09T12:44:26.337Z,100334.20
2022-11-09T12:47:18.611Z,100333.40
2022-11-09T12:49:48.609Z,100333.40
2022-11-09T12:52:22.911Z,100329.00
2022-11-09T12:54:50.507Z,100333.20
2022-11-09T12:57:25.519Z,100339.20
2022-11-09T12:59:55.550Z,100339.80
2022-11-09T13:02:32.447Z,100341.20
2022-11-09T13:05:03.649Z,100320.60
2022-11-09T13:07:49.100Z,100330.40
2022-11-09T13:10:28.820Z,100324.20
2022-11-09T13:13:11.312Z,100332.80
2022-11-09T13:15:39.640Z,100325.60
2022-11-09T13:18:50.692Z,100333.40
2022-11-09T13:21:23.216Z,100340.40
2022-11-09T13:24:01.258Z,100334.20
2022-11-09T13:26:46.909Z,100337.00
2022-11-09T13:29:39.958Z,100342.40
2022-11-09T13:32:29.365Z,100345.20
2022-11-09T13:35:02.129Z,100350.00
2022-11-09T13:37:40.689Z,100353.80
2022-11-09T13:40:32.250Z,100357.80
2022-11-09T13:43:34.866Z,100356.00
2022-11-09T13:46:25.637Z,100361.40
2022-11-09T13:48:55.895Z,100363.20
2022-11-09T13:51:34.791Z,100373.80
2022-11-09T13:54:34.773Z,100370.60
2022-11-09T13:57:06.293Z,100367.00
2022-11-09T13:59:48.822Z,100375.80
2022-11-09T14:02:20.952Z,100374.20
2022-11-09T14:04:48.128Z,100377.40
2022-11-09T14:07:19.594Z,100375.80
2022-11-09T14:10:20.414Z,100376.60
2022-11-09T14:13:45.477Z,100384.00
2022-11-09T14:16:59.948Z,100387.80
2022-11-09T14:20:12.248Z,100385.60
2022-11-09T14:22:40.386Z,100370.80
2022-11-09T14:25:17.696Z,100377.00
2022-11-09T14:27:56.508Z,100374.40
2022-11-09T14:30:30.733Z,100375.40
2022-11-09T14:32:58.656Z,100379.20
2022-11-09T14:35:35.346Z,100376.40
2022-11-09T14:38:17.762Z,100375.40
2022-11-09T14:40:47.721Z,100380.00
2022-11-09T14:43:28.660Z,100383.20
2022-11-09T14:45:59.934Z,100383.40
2022-11-09T14:48:30.282Z,100390.20
2022-11-09T14:51:02.438Z,100390.80
2022-11-09T14:53:34.580Z,100396.40
2022-11-09T14:56:07.708Z,100392.40
2022-11-09T14:58:40.169Z,100390.40
2022-11-09T15:01:20.988Z,100389.20
2022-11-09T15:04:10.211Z,100388.20
2022-11-09T15:06:51.420Z,100390.00
2022-11-09T15:09:22.700Z,100393.80
2022-11-09T15:11:51.431Z,100387.00
2022-11-09T15:14:33.900Z,100386.80
2022-11-09T15:17:36.688Z,100388.60
2022-11-09T15:20:06.280Z,100389.80
2022-11-09T15:22:51.643Z,100392.00
2022-11-09T15:25:29.494Z,100391.60
2022-11-09T15:28:14.510Z,100395.80
2022-11-09T15:31:12.281Z,100398.00
2022-11-09T15:33:51.857Z,100396.60
2022-11-09T15:36:29.057Z,100393.60
2022-11-09T15:39:15.718Z,100396.40
2022-11-09T15:41:42.471Z,100392.40
2022-11-09T15:44:12.752Z,100392.80
2022-11-09T15:46:52.286Z,100388.60
2022-11-09T15:49:28.211Z,100391.20
2022-11-09T15:51:56.056Z,100383.40
2022-11-09T15:54:23.743Z,100385.40
2022-11-09T15:56:50.871Z,100383.00
2022-11-09T15:59:26.405Z,100382.20
2022-11-09T16:01:53.261Z,100387.80
2022-11-09T16:04:20.349Z,100379.80
2022-11-09T16:06:47.258Z,100376.80
2022-11-09T16:09:15.472Z,100382.20
2022-11-09T16:11:42.144Z,100384.00
2022-11-09T16:14:08.805Z,100379.40
2022-11-09T16:16:35.369Z,100379.20
2022-11-09T16:19:01.947Z,100386.20
2022-11-09T16:21:28.467Z,100388.40
2022-11-09T16:23:58.517Z,100390.00
2022-11-09T16:26:25.853Z,100389.00
2022-11-09T16:28:54.557Z,100389.40
2022-11-09T16:31:41.035Z,100379.00
2022-11-09T16:34:08.375Z,100381.60
2022-11-09T16:36:37.069Z,100386.00
2022-11-09T16:39:09.026Z,100387.00
2022-11-09T16:41:41.842Z,100392.60
2022-11-09T16:44:11.510Z,100395.00
2022-11-09T16:46:43.251Z,100398.00
2022-11-09T16:49:09.964Z,100398.00
2022-11-09T16:51:36.640Z,100394.80
2022-11-09T16:54:03.621Z,100391.80
2022-11-09T16:56:33.141Z,100388.00
2022-11-09T16:59:00.755Z,100384.00
2022-11-09T17:01:27.652Z,100385.80
2022-11-09T17:03:55.898Z,100384.40
2022-11-09T17:06:22.532Z,100376.80
2022-11-09T17:08:50.632Z,100379.00
2022-11-09T17:11:17.401Z,100373.40
2022-11-09T17:13:43.969Z,100372.00
2022-11-09T17:16:12.800Z,100378.60
2022-11-09T17:18:40.640Z,100385.00
2022-11-09T17:21:13.931Z,100384.20
2022-11-09T17:23:42.312Z,100391.80
2022-11-09T17:26:09.817Z,100386.00
2022-11-09T17:28:40.180Z,100388.80
2022-11-09T17:31:17.027Z,100393.80
2022-11-09T17:33:44.302Z,100393.60
2022-11-09T17:36:14.338Z,100393.40
2022-11-09T17:38:41.597Z,100395.00
2022-11-09T17:41:12.199Z,100391.80
2022-11-09T17:43:41.636Z,100392.60
2022-11-09T17:46:10.505Z,100382.80
2022-11-09T17:48:40.154Z,100384.80
2022-11-09T17:51:08.244Z,100390.60
2022-11-09T17:53:36.204Z,100397.80
2022-11-09T17:56:04.012Z,100410.60
2022-11-09T17:58:33.739Z,100406.00
2022-11-09T18:01:14.372Z,100411.20
2022-11-09T18:03:41.218Z,100417.20
2022-11-09T18:06:15.553Z,100415.80
2022-11-09T18:08:44.192Z,100412.60
2022-11-09T18:11:12.639Z,100415.80
2022-11-09T18:13:41.804Z,100418.80
2022-11-09T18:16:17.285Z,100419.40
2022-11-09T18:18:45.276Z,100415.40
2022-11-09T18:21:18.956Z,100409.60
2022-11-09T18:23:46.247Z,100410.60
2022-11-09T18:26:13.586Z,100406.80
2022-11-09T18:28:40.251Z,100402.00
2022-11-09T18:31:11.264Z,100410.20
2022-11-09T18:33:39.846Z,100403.60
2022-11-09T18:36:19.204Z,100403.20
2022-11-09T18:38:45.923Z,100409.00
2022-11-09T18:41:21.318Z,100413.00
2022-11-09T18:43:50.052Z,100417.40
2022-11-09T18:46:21.935Z,100417.20
2022-11-09T18:48:53.786Z,100411.60
2022-11-09T18:51:21.456Z,100415.80
2022-11-09T18:53:49.468Z,100410.40
2022-11-09T18:56:24.031Z,100413.80
2022-11-09T18:58:53.680Z,100412.80
2022-11-09T19:01:22.983Z,100411.80
2022-11-09T19:03:55.030Z,100407.60
2022-11-09T19:06:24.670Z,100413.80
2022-11-09T19:09:10.298Z,100412.60
2022-11-09T19:11:37.533Z,100413.20
2022-11-09T19:14:04.432Z,100418.60
2022-11-09T19:16:31.416Z,100415.00
2022-11-09T19:18:58.182Z,100420.40
2022-11-09T19:21:24.783Z,100424.20
2022-11-09T19:23:52.120Z,100434.00
2022-11-09T19:26:22.620Z,100431.20
2022-11-09T19:28:49.173Z,100433.40
2022-11-09T19:31:19.133Z,100436.60
2022-11-09T19:33:45.619Z,100434.00
2022-11-09T19:36:29.802Z,100434.20
2022-11-09T19:38:58.388Z,100427.20
2022-11-09T19:41:25.661Z,100428.80
2022-11-09T19:43:55.354Z,100433.80
2022-11-09T19:46:22.126Z,100425.80
2022-11-09T19:48:48.809Z,100431.20
2022-11-09T19:51:17.432Z,100433.80
2022-11-09T19:53:56.575Z,100434.60
2022-11-09T19:56:26.377Z,100432.60
2022-11-09T19:58:56.276Z,100436.20
2022-11-09T20:01:23.766Z,100444.00
2022-11-09T20:03:53.266Z,100445.00
2022-11-09T20:06:22.612Z,100439.00
2022-11-09T20:08:51.538Z,100435.60
2022-11-09T20:11:39.999Z,100433.40
2022-11-09T20:14:08.078Z,100435.20
2022-11-09T20:16:37.045Z,100438.00
2022-11-09T20:19:12.390Z,100445.00
2022-11-09T20:21:40.253Z,100443.00
2022-11-09T20:24:08.759Z,100437.40
2022-11-09T20:26:36.716Z,100441.80
2022-11-09T20:29:03.408Z,100440.20
2022-11-09T20:31:30.352Z,100433.20
2022-11-09T20:34:00.371Z,100435.40
2022-11-09T20:36:28.922Z,100437.00
2022-11-09T20:38:57.401Z,100438.80
2022-11-09T20:41:25.687Z,100441.60
2022-11-09T20:43:53.151Z,100437.40
2022-11-09T20:46:23.262Z,100446.00
2022-11-09T20:48:55.163Z,100443.20
2022-11-09T20:51:24.212Z,100453.20
2022-11-09T20:53:52.447Z,100460.20
2022-11-09T20:56:20.849Z,100469.40
2022-11-09T20:58:47.658Z,100464.20
2022-11-09T21:01:18.735Z,100462.80
2022-11-09T21:03:47.305Z,100459.00
2022-11-09T21:06:15.039Z,100457.80
2022-11-09T21:08:54.371Z,100450.60
2022-11-09T21:11:23.335Z,100450.40
2022-11-09T21:13:54.564Z,100442.40
2022-11-09T21:16:22.959Z,100441.20
2022-11-09T21:18:49.637Z,100438.60
2022-11-09T21:21:20.482Z,100441.20
2022-11-09T21:24:06.644Z,100441.60
2022-11-09T21:26:51.962Z,100441.60
2022-11-09T21:29:41.288Z,100438.20
2022-11-09T21:32:10.561Z,100437.80
2022-11-09T21:34:37.622Z,100428.20
2022-11-09T21:37:04.769Z,100425.00
2022-11-09T21:39:31.896Z,100422.40
2022-11-09T21:41:59.028Z,100424.00
2022-11-09T21:44:29.284Z,100424.80
2022-11-09T21:46:57.132Z,100419.60
2022-11-09T21:49:24.225Z,100417.40
2022-11-09T21:51:51.027Z,100422.80
2022-11-09T21:54:18.060Z,100431.40
2022-11-09T21:56:47.060Z,100438.20
2022-11-09T21:59:13.950Z,100434.20
2022-11-09T22:01:40.560Z,100427.20
2022-11-09T22:04:08.637Z,100432.60
2022-11-09T22:06:38.452Z,100424.60
2022-11-09T22:09:07.838Z,100428.40
2022-11-09T22:11:53.158Z,100426.80
2022-11-09T22:14:38.626Z,100428.20
2022-11-09T22:17:09.875Z,100426.40
2022-11-09T22:19:59.066Z,100421.80
2022-11-09T22:22:30.678Z,100435.00
2022-11-09T22:24:57.402Z,100440.80
2022-11-09T22:27:24.170Z,100444.40
2022-11-09T22:29:51.065Z,100444.00
2022-11-09T22:32:17.650Z,100450.40
2022-11-09T22:34:44.286Z,100451.60
2022-11-09T22:37:10.977Z,100455.20
2022-11-09T22:39:37.512Z,100461.80
2022-11-09T22:42:04.160Z,100466.00
2022-11-09T22:44:31.435Z,100473.00
2022-11-09T22:46:58.576Z,100463.20
2022-11-09T22:49:25.322Z,100461.00
2022-11-09T22:51:52.843Z,100458.00
2022-11-09T22:54:22.702Z,100458.20
2022-11-09T22:56:49.294Z,100459.20
2022-11-09T22:59:15.857Z,100460.20
2022-11-09T23:01:42.671Z,100463.80
2022-11-09T23:04:10.080Z,100461.00
2022-11-09T23:06:36.810Z,100457.80
2022-11-09T23:09:04.194Z,100458.20
2022-11-09T23:11:30.802Z,100458.20
2022-11-09T23:13:57.245Z,100453.80
2022-11-09T23:16:24.373Z,100469.40
2022-11-09T23:18:54.261Z,100476.60
2022-11-09T23:21:27.410Z,100471.20
2022-11-09T23:23:58.073Z,100461.20
2022-11-09T23:26:26.713Z,100461.00
2022-11-09T23:28:54.496Z,100459.60
2022-11-09T23:31:26.467Z,100466.20
2022-11-09T23:33:56.164Z,100465.20
2022-11-09T23:36:25.711Z,100461.20
2022-11-09T23:38:53.206Z,100462.00
2022-11-09T23:41:20.576Z,100461.00
2022-11-09T23:43:49.674Z,100458.40
2022-11-09T23:46:17.402Z,100456.20
2022-11-09T23:48:44.472Z,100452.20
2022-11-09T23:51:11.599Z,100450.40
2022-11-09T23:53:38.388Z,100456.00
2022-11-09T23:56:09.507Z,100450.40
2022-11-09T23:58:36.791Z,100452.20
